Wendy Moran — WDA2273 — position and weather

sailwx.info

Track history (hours):
 
Tides and Currents Weather Stations Pressure Air Temp Water Temp Dewpoint Dewpoint Depression Visibility Wind Speed Wind Dir Waves Ship Positions

Wendy Moran

Owner: Moran Towing Corporation, New Canaan, CT. More information available from US FCC via Universal Licensing System and Coast Guard Vessel Documentation Center.

Last reported at 2018-Feb-23 12:27 UTC. Time now 2018-Feb-23 12:36 UTC.
Position N 36°57' W 076°20'.

; draft 4.1 m.

Type: Tug. MMSI: 367457590.

Date/timePositionNaut miles runAvg speedWind from/ knotsBaromVisibWave heightAir tempDewpointWater temp
2018-Feb-23 12:27N 36°57' W 076°20'0 0.0
2018-Feb-23 11:51N 36°57' W 076°20'0 0.0
2018-Feb-23 11:26N 36°57' W 076°20'0 0.0
2018-Feb-23 10:57N 36°57' W 076°20'0 0.0
2018-Feb-23 10:29N 36°57' W 076°20'0 0.0
2018-Feb-23 09:58N 36°57' W 076°20'0 0.0
2018-Feb-23 09:28N 36°57' W 076°20'0 0.0
2018-Feb-23 08:57N 36°57' W 076°20'0 0.0
2018-Feb-23 08:26N 36°57' W 076°20'0 0.0
2018-Feb-23 07:56N 36°57' W 076°20'0 0.0
2018-Feb-23 07:29N 36°57' W 076°20'0 0.0
2018-Feb-23 06:53N 36°57' W 076°20'0 0.0
2018-Feb-23 06:28N 36°57' W 076°20'0 0.0
2018-Feb-23 05:57N 36°57' W 076°20'0 0.0
2018-Feb-23 05:28N 36°57' W 076°20'0 0.0
2018-Feb-23 04:53N 36°57' W 076°20'0 0.0
2018-Feb-23 04:29N 36°57' W 076°20'0 0.0
2018-Feb-23 03:53N 36°57' W 076°20'0 0.0
2018-Feb-23 03:28N 36°57' W 076°20'0 0.0
2018-Feb-23 02:59N 36°57' W 076°20'0 0.0
2018-Feb-23 02:29N 36°57' W 076°20'0 0.0
2018-Feb-23 01:58N 36°57' W 076°20'0 0.0
2018-Feb-23 01:27N 36°57' W 076°20'0 0.0
2018-Feb-23 00:36N 36°57' W 076°20'0 0.0
2018-Feb-23 00:21N 36°57' W 076°20'0 0.0
2018-Feb-22 23:56N 36°57' W 076°20'0 0.0
2018-Feb-22 23:29N 36°57' W 076°20'0 0.0
2018-Feb-22 22:58N 36°57' W 076°20'0 0.0
2018-Feb-22 22:27N 36°57' W 076°20'0 0.0
2018-Feb-22 21:57N 36°57' W 076°20'0 0.0
2018-Feb-22 21:27N 36°57' W 076°20'0 0.0
2018-Feb-22 20:38N 36°57' W 076°20'0 0.0
2018-Feb-22 20:27N 36°57' W 076°20'0 0.0
2018-Feb-22 19:42N 36°57' W 076°20'0 0.4
2018-Feb-22 19:27N 36°57' W 076°20'5 9.9
2018-Feb-22 18:57N 36°52' W 076°20'3 6.9
2018-Feb-22 18:28N 36°51' W 076°16'0 0.0
2018-Feb-22 17:58N 36°51' W 076°16'0 0.0
2018-Feb-22 17:30N 36°51' W 076°16'0 0.0
2018-Feb-22 17:00N 36°51' W 076°16'0 0.0
2018-Feb-22 16:30N 36°51' W 076°16'0 0.0
2018-Feb-22 16:00N 36°51' W 076°16'0 0.0
2018-Feb-22 15:21N 36°51' W 076°16'0 0.0
2018-Feb-22 14:55N 36°51' W 076°16'0 0.0
2018-Feb-22 14:30N 36°51' W 076°16'2 2.6
2018-Feb-22 13:55N 36°50' W 076°18'2 4.0
2018-Feb-22 13:30N 36°51' W 076°18'5 7.4
2018-Feb-22 12:52N 36°56' W 076°20'2 4.8
2018-Feb-22 12:30N 36°57' W 076°20'0 0.5
2018-Feb-22 12:00N 36°57' W 076°20'0 0.0
2018-Feb-22 11:30N 36°57' W 076°20'0 0.0
2018-Feb-22 10:59N 36°57' W 076°20'0 0.0
2018-Feb-22 10:29N 36°57' W 076°20'0 0.0
2018-Feb-22 09:50N 36°57' W 076°20'0 0.0
2018-Feb-22 09:30N 36°57' W 076°20'0 0.0
2018-Feb-22 08:59N 36°57' W 076°20'0 0.0
2018-Feb-22 08:26N 36°57' W 076°20'0 0.0
2018-Feb-22 08:00N 36°57' W 076°20'0 0.0
2018-Feb-22 07:17N 36°57' W 076°20'0 0.0
2018-Feb-22 06:52N 36°57' W 076°20'0 0.0
2018-Feb-22 06:27N 36°57' W 076°20'0 0.0
2018-Feb-22 05:22N 36°57' W 076°20'0 0.0
2018-Feb-22 04:52N 36°57' W 076°20'0 0.0
2018-Feb-22 04:26N 36°57' W 076°20'0 0.0
2018-Feb-22 03:54N 36°57' W 076°20'0 0.0
2018-Feb-22 03:28N 36°57' W 076°20'0 0.0
2018-Feb-22 02:58N 36°57' W 076°20'0 0.0
2018-Feb-22 02:27N 36°57' W 076°20'0 0.0
2018-Feb-22 01:56N 36°57' W 076°20'0 0.0
2018-Feb-22 01:26N 36°57' W 076°20'0 0.0
2018-Feb-22 00:56N 36°57' W 076°20'0 0.0
2018-Feb-22 00:26N 36°57' W 076°20'0 0.0
2018-Feb-21 23:56N 36°57' W 076°20'0 0.0
2018-Feb-21 23:28N 36°57' W 076°20'0 0.0
2018-Feb-21 22:58N 36°57' W 076°20'0 0.0
2018-Feb-21 22:27N 36°57' W 076°20'0 0.0
2018-Feb-21 21:56N 36°57' W 076°20'0 0.0
2018-Feb-21 21:30N 36°57' W 076°20'0 0.0
2018-Feb-21 20:50N 36°57' W 076°20'0 0.0
2018-Feb-21 20:29N 36°57' W 076°20'0 0.0
2018-Feb-21 19:58N 36°57' W 076°20'0 0.4
2018-Feb-21 19:28N 36°57' W 076°20'0 0.2
2018-Feb-21 18:56N 36°57' W 076°20'0 0.2
2018-Feb-21 18:27N 36°57' W 076°20'0 0.5
2018-Feb-21 17:56N 36°58' W 076°20'0 0.9
2018-Feb-21 17:27N 36°57' W 076°20'0 0.0
2018-Feb-21 16:29N 36°57' W 076°20'0 0.0
2018-Feb-21 15:58N 36°57' W 076°20'0 0.0
2018-Feb-21 15:29N 36°57' W 076°20'0 0.0
2018-Feb-21 14:55N 36°57' W 076°20'0 0.0
2018-Feb-21 14:29N 36°57' W 076°20'0 0.5
2018-Feb-21 13:38N 36°57' W 076°20'0 0.7
2018-Feb-21 13:13N 36°57' W 076°20'0 0.1
2018-Feb-21 13:00N 36°57' W 076°20'0 0.8
2018-Feb-21 12:28N 36°57' W 076°20'1 1.3
2018-Feb-21 11:59N 36°57' W 076°20'0 0.0
2018-Feb-21 11:28N 36°57' W 076°20'0 0.0
2018-Feb-21 10:58N 36°57' W 076°20'0 0.0
2018-Feb-21 10:27N 36°57' W 076°20'0 0.0
2018-Feb-21 09:57N 36°57' W 076°20'0 0.0
2018-Feb-21 09:27N 36°57' W 076°20'0 0.0
2018-Feb-21 08:56N 36°57' W 076°20'0 0.0
2018-Feb-21 08:26N 36°57' W 076°20'0 0.0
2018-Feb-21 08:00N 36°57' W 076°20'0 0.0
2018-Feb-21 07:30N 36°57' W 076°20'0 0.0
2018-Feb-21 06:59N 36°57' W 076°20'0 0.0
2018-Feb-21 06:29N 36°57' W 076°20'0 0.0
2018-Feb-21 05:53N 36°57' W 076°20'0 0.0
2018-Feb-21 05:27N 36°57' W 076°20'0 0.0
2018-Feb-21 04:57N 36°57' W 076°20'0 0.0
2018-Feb-21 04:26N 36°57' W 076°20'0 0.0
2018-Feb-21 03:56N 36°57' W 076°20'0 0.0
2018-Feb-21 03:26N 36°57' W 076°20'0 0.0
2018-Feb-21 02:56N 36°57' W 076°20'0 0.0
2018-Feb-21 02:23N 36°57' W 076°20'0 0.0
2018-Feb-21 01:57N 36°57' W 076°20'0 0.0
2018-Feb-21 01:27N 36°57' W 076°20'0 0.0
2018-Feb-21 00:56N 36°57' W 076°20'0 0.0
2018-Feb-21 00:24N 36°57' W 076°20'0 0.0
2018-Feb-21 00:00N 36°57' W 076°20'0 0.0
2018-Feb-20 23:29N 36°57' W 076°20'0 0.0
2018-Feb-20 22:59N 36°57' W 076°20'0 0.0
2018-Feb-20 22:27N 36°57' W 076°20'0 0.0
2018-Feb-20 21:57N 36°57' W 076°20'0 0.0
2018-Feb-20 21:28N 36°57' W 076°20'0 0.0
2018-Feb-20 20:56N 36°57' W 076°20'0 0.0
2018-Feb-20 20:26N 36°57' W 076°20'0 0.0
2018-Feb-20 20:00N 36°57' W 076°20'0 0.0
2018-Feb-20 19:28N 36°57' W 076°20'0 0.0
2018-Feb-20 18:56N 36°57' W 076°20'0 0.0
2018-Feb-20 18:27N 36°57' W 076°20'0 0.0
2018-Feb-20 17:52N 36°57' W 076°20'0 0.0
2018-Feb-20 17:30N 36°57' W 076°20'0 0.0
2018-Feb-20 17:00N 36°57' W 076°20'0 0.0
2018-Feb-20 16:29N 36°57' W 076°20'0 0.0
2018-Feb-20 15:57N 36°57' W 076°20'0 0.0
2018-Feb-20 15:27N 36°57' W 076°20'0 0.0
2018-Feb-20 14:57N 36°57' W 076°20'0 0.0
2018-Feb-20 14:26N 36°57' W 076°20'0 0.0
2018-Feb-20 14:00N 36°57' W 076°20'0 0.0
2018-Feb-20 13:30N 36°57' W 076°20'0 0.0
2018-Feb-20 12:59N 36°57' W 076°20'0 0.0
2018-Feb-20 12:29N 36°57' W 076°20'0 0.0
2018-Feb-20 11:46N 36°57' W 076°20'0 0.0
2018-Feb-20 11:30N 36°57' W 076°20'0 0.0
2018-Feb-20 10:59N 36°57' W 076°20'0 0.0
2018-Feb-20 10:29N 36°57' W 076°20'0 0.0
2018-Feb-20 09:59N 36°57' W 076°20'0 0.0
2018-Feb-20 09:16N 36°57' W 076°20'0 0.0
2018-Feb-20 08:56N 36°57' W 076°20'0 0.0
2018-Feb-20 08:29N 36°57' W 076°20'0 0.0
2018-Feb-20 07:57N 36°57' W 076°20'0 0.0
2018-Feb-20 07:26N 36°57' W 076°20'0 0.0
2018-Feb-20 07:00N 36°57' W 076°20'0 0.0
2018-Feb-20 06:29N 36°57' W 076°20'0 0.0
2018-Feb-20 05:59N 36°57' W 076°20'0 0.0
2018-Feb-20 05:29N 36°57' W 076°20'0 0.0
2018-Feb-20 04:58N 36°57' W 076°20'0 0.0
2018-Feb-20 04:28N 36°57' W 076°20'0 0.0
2018-Feb-20 03:57N 36°57' W 076°20'0 0.0
2018-Feb-20 03:27N 36°57' W 076°20'0 0.0
2018-Feb-20 02:56N 36°57' W 076°20'0 0.0
2018-Feb-20 02:26N 36°57' W 076°20'0 0.0
2018-Feb-20 02:00N 36°57' W 076°20'0 0.0
2018-Feb-20 01:29N 36°57' W 076°20'0 0.0
2018-Feb-20 00:54N 36°57' W 076°20'0 0.0
2018-Feb-20 00:29N 36°57' W 076°20'0 0.0
2018-Feb-19 23:58N 36°57' W 076°20'0 0.0
2018-Feb-19 23:21N 36°57' W 076°20'0 0.0
2018-Feb-19 22:56N 36°57' W 076°20'1 1.7
2018-Feb-19 22:20N 36°56' W 076°20'0 0.2
2018-Feb-19 21:55N 36°56' W 076°20'1 1.7
2018-Feb-19 21:14N 36°57' W 076°20'1 2.8
2018-Feb-19 20:55N 36°56' W 076°20'0 0.6
2018-Feb-19 20:28N 36°57' W 076°20'2 3.7
2018-Feb-19 19:57N 36°58' W 076°20'1 2.2
2018-Feb-19 19:23N 36°57' W 076°20'0 0.0
2018-Feb-19 18:57N 36°57' W 076°20'0 0.0
2018-Feb-19 18:29N 36°57' W 076°20'0 0.0
2018-Feb-19 17:58N 36°57' W 076°20'0 0.0
2018-Feb-19 17:28N 36°57' W 076°20'0 0.0
2018-Feb-19 16:53N 36°57' W 076°20'0 0.0
2018-Feb-19 16:28N 36°57' W 076°20'0 0.0
2018-Feb-19 15:50N 36°57' W 076°20'0 0.0
2018-Feb-19 15:30N 36°57' W 076°20'0 0.0
2018-Feb-19 14:57N 36°57' W 076°20'0 0.0
2018-Feb-19 14:17N 36°57' W 076°20'0 0.0
2018-Feb-19 13:56N 36°57' W 076°20'0 0.0
2018-Feb-19 13:30N 36°57' W 076°20'0 0.0
2018-Feb-19 12:59N 36°57' W 076°20'0 0.0
2018-Feb-19 12:18N 36°57' W 076°20'1 0.0
2018-Feb-18 18:57N 36°56' W 076°20'3 7.0
2018-Feb-18 18:28N 36°53' W 076°20'0 0.4
2018-Feb-18 17:55N 36°53' W 076°20'0 0.3
2018-Feb-18 17:30N 36°53' W 076°20'0 0.1
2018-Feb-18 16:11N 36°53' W 076°20'0 0.5
2018-Feb-18 16:00N 36°53' W 076°20'4 2.8
2018-Feb-18 14:43N 36°57' W 076°20'0 0.7
2018-Feb-18 14:27N 36°57' W 076°20'0 0.9
2018-Feb-18 13:56N 36°57' W 076°20'0 0.0
2018-Feb-18 13:30N 36°57' W 076°20'0 0.0
2018-Feb-18 13:01N 36°57' W 076°20'0 0.0
2018-Feb-18 12:25N 36°57' W 076°20'0 0.0
2018-Feb-18 11:59N 36°57' W 076°20'0 0.0
2018-Feb-18 11:24N 36°57' W 076°20'0 0.0
2018-Feb-18 11:01N 36°57' W 076°20'0 0.0
2018-Feb-18 10:31N 36°57' W 076°20'0 0.0
2018-Feb-18 09:48N 36°57' W 076°20'0 0.0
2018-Feb-18 09:23N 36°57' W 076°20'0 0.0
2018-Feb-18 08:58N 36°57' W 076°20'0 0.0
2018-Feb-18 08:28N 36°57' W 076°20'0 0.0
2018-Feb-18 07:58N 36°57' W 076°20'0 0.0
2018-Feb-18 07:28N 36°57' W 076°20'0 0.0
2018-Feb-18 06:51N 36°57' W 076°20'0 0.0
2018-Feb-18 06:26N 36°57' W 076°20'0 0.0
2018-Feb-18 06:00N 36°57' W 076°20'0 0.0
2018-Feb-18 05:30N 36°57' W 076°20'0 0.0
2018-Feb-18 04:58N 36°57' W 076°20'0 0.0
2018-Feb-18 04:28N 36°57' W 076°20'0 0.0
2018-Feb-18 03:55N 36°57' W 076°20'0 0.0
2018-Feb-18 03:29N 36°57' W 076°20'0 0.0
2018-Feb-18 02:58N 36°57' W 076°20'0 0.0
2018-Feb-18 02:28N 36°57' W 076°20'0 0.0
2018-Feb-18 01:57N 36°57' W 076°20'0 0.0
2018-Feb-18 01:30N 36°57' W 076°20'0 0.0
2018-Feb-18 01:00N 36°57' W 076°20'0 0.0
2018-Feb-18 00:29N 36°57' W 076°20'0 0.0
2018-Feb-17 23:59N 36°57' W 076°20'0 0.0
2018-Feb-17 23:28N 36°57' W 076°20'0 0.0
2018-Feb-17 22:58N 36°57' W 076°20'0 0.0
2018-Feb-17 22:27N 36°57' W 076°20'0 0.0
2018-Feb-17 21:57N 36°57' W 076°20'0 0.0
2018-Feb-17 21:26N 36°57' W 076°20'0 0.0
2018-Feb-17 20:56N 36°57' W 076°20'0 0.0
2018-Feb-17 20:30N 36°57' W 076°20'0 0.0
2018-Feb-17 19:59N 36°57' W 076°20'1 0.8
2018-Feb-17 19:18N 36°57' W 076°20'0 0.1
2018-Feb-17 18:57N 36°57' W 076°20'2 3.4
2018-Feb-17 18:26N 36°58' W 076°20'1 1.5
2018-Feb-17 18:00N 36°58' W 076°20'4 9.2
2018-Feb-17 17:31N 36°53' W 076°20'0 0.0
2018-Feb-17 17:00N 36°53' W 076°20'0 0.2
2018-Feb-17 16:29N 36°53' W 076°20'4 5.7
2018-Feb-17 15:51N 36°57' W 076°20'0 0.2
2018-Feb-17 15:24N 36°57' W 076°20'0 0.1
2018-Feb-17 14:58N 36°57' W 076°20'0 0.1
2018-Feb-17 14:28N 36°57' W 076°20'4 5.2
2018-Feb-17 13:41N 36°53' W 076°20'1 6.2
2018-Feb-17 13:28N 36°52' W 076°19'6 0.5
2018-Feb-17 01:17N 36°57' W 076°20'0 0.0
2018-Feb-17 00:57N 36°57' W 076°20'0 0.0
2018-Feb-17 00:26N 36°57' W 076°20'0 0.0
2018-Feb-16 23:56N 36°57' W 076°20'0 0.0
2018-Feb-16 23:26N 36°57' W 076°20'0 0.0
2018-Feb-16 22:46N 36°57' W 076°20'0 0.0
2018-Feb-16 22:26N 36°57' W 076°20'0 0.0
2018-Feb-16 21:56N 36°57' W 076°20'1 3.3
2018-Feb-16 21:30N 36°56' W 076°20'3 5.6
2018-Feb-16 21:00N 36°53' W 076°20'1 1.2
2018-Feb-16 20:17N 36°54' W 076°20'1 3.4
2018-Feb-16 19:54N 36°55' W 076°20'3 6.9
2018-Feb-16 19:28N 36°58' W 076°20'2 2.9
2018-Feb-16 18:57N 36°57' W 076°20'1 1.8
2018-Feb-16 18:30N 36°57' W 076°20'0 0.8
2018-Feb-16 17:59N 36°57' W 076°20'2 3.5
2018-Feb-16 17:29N 36°59' W 076°19'5 9.6
2018-Feb-16 16:57N 36°60' W 076°13'5 8.7
2018-Feb-16 16:25N 37°04' W 076°09'  
Track history (hours):
 
Tides and Currents Weather Stations Pressure Air Temp Water Temp Dewpoint Dewpoint Depression Visibility Wind Speed Wind Dir Waves Ship Positions

Wendy Moran

Owner: Moran Towing Corporation, New Canaan, CT. More information available from US FCC via Universal Licensing System and Coast Guard Vessel Documentation Center.

Last reported at 2018-Feb-23 12:27 UTC. Time now 2018-Feb-23 12:37 UTC.
Position N 36°57' W 076°20'.

; draft 4.1 m.

Type: Tug. MMSI: 367457590.

Date/timePositionNaut miles runAvg speedWind from/ knotsBaromVisibWave heightAir tempDewpointWater temp
2018-Feb-23 12:27N 36°57' W 076°20'0 0.0
2018-Feb-23 11:51N 36°57' W 076°20'0 0.0
2018-Feb-23 11:26N 36°57' W 076°20'0 0.0
2018-Feb-23 10:57N 36°57' W 076°20'0 0.0
2018-Feb-23 10:29N 36°57' W 076°20'0 0.0
2018-Feb-23 09:58N 36°57' W 076°20'0 0.0
2018-Feb-23 09:28N 36°57' W 076°20'0 0.0
2018-Feb-23 08:57N 36°57' W 076°20'0 0.0
2018-Feb-23 08:26N 36°57' W 076°20'0 0.0
2018-Feb-23 07:56N 36°57' W 076°20'0 0.0
2018-Feb-23 07:29N 36°57' W 076°20'0 0.0
2018-Feb-23 06:53N 36°57' W 076°20'0 0.0
2018-Feb-23 06:28N 36°57' W 076°20'0 0.0
2018-Feb-23 05:57N 36°57' W 076°20'0 0.0
2018-Feb-23 05:28N 36°57' W 076°20'0 0.0
2018-Feb-23 04:53N 36°57' W 076°20'0 0.0
2018-Feb-23 04:29N 36°57' W 076°20'0 0.0
2018-Feb-23 03:53N 36°57' W 076°20'0 0.0
2018-Feb-23 03:28N 36°57' W 076°20'0 0.0
2018-Feb-23 02:59N 36°57' W 076°20'0 0.0
2018-Feb-23 02:29N 36°57' W 076°20'0 0.0
2018-Feb-23 01:58N 36°57' W 076°20'0 0.0
2018-Feb-23 01:27N 36°57' W 076°20'0 0.0
2018-Feb-23 00:36N 36°57' W 076°20'0 0.0
2018-Feb-23 00:21N 36°57' W 076°20'0 0.0
2018-Feb-22 23:56N 36°57' W 076°20'0 0.0
2018-Feb-22 23:29N 36°57' W 076°20'0 0.0
2018-Feb-22 22:58N 36°57' W 076°20'0 0.0
2018-Feb-22 22:27N 36°57' W 076°20'0 0.0
2018-Feb-22 21:57N 36°57' W 076°20'0 0.0
2018-Feb-22 21:27N 36°57' W 076°20'0 0.0
2018-Feb-22 20:38N 36°57' W 076°20'0 0.0
2018-Feb-22 20:27N 36°57' W 076°20'0 0.0
2018-Feb-22 19:42N 36°57' W 076°20'0 0.4
2018-Feb-22 19:27N 36°57' W 076°20'5 9.9
2018-Feb-22 18:57N 36°52' W 076°20'3 6.9
2018-Feb-22 18:28N 36°51' W 076°16'0 0.0
2018-Feb-22 17:58N 36°51' W 076°16'0 0.0
2018-Feb-22 17:30N 36°51' W 076°16'0 0.0
2018-Feb-22 17:00N 36°51' W 076°16'0 0.0
2018-Feb-22 16:30N 36°51' W 076°16'0 0.0
2018-Feb-22 16:00N 36°51' W 076°16'0 0.0
2018-Feb-22 15:21N 36°51' W 076°16'0 0.0
2018-Feb-22 14:55N 36°51' W 076°16'0 0.0
2018-Feb-22 14:30N 36°51' W 076°16'2 2.6
2018-Feb-22 13:55N 36°50' W 076°18'2 4.0
2018-Feb-22 13:30N 36°51' W 076°18'5 7.4
2018-Feb-22 12:52N 36°56' W 076°20'2 4.8
2018-Feb-22 12:30N 36°57' W 076°20'0 0.5
2018-Feb-22 12:00N 36°57' W 076°20'0 0.0
2018-Feb-22 11:30N 36°57' W 076°20'0 0.0
2018-Feb-22 10:59N 36°57' W 076°20'0 0.0
2018-Feb-22 10:29N 36°57' W 076°20'0 0.0
2018-Feb-22 09:50N 36°57' W 076°20'0 0.0
2018-Feb-22 09:30N 36°57' W 076°20'0 0.0
2018-Feb-22 08:59N 36°57' W 076°20'0 0.0
2018-Feb-22 08:26N 36°57' W 076°20'0 0.0
2018-Feb-22 08:00N 36°57' W 076°20'0 0.0
2018-Feb-22 07:17N 36°57' W 076°20'0 0.0
2018-Feb-22 06:52N 36°57' W 076°20'0 0.0
2018-Feb-22 06:27N 36°57' W 076°20'0 0.0
2018-Feb-22 05:22N 36°57' W 076°20'0 0.0
2018-Feb-22 04:52N 36°57' W 076°20'0 0.0
2018-Feb-22 04:26N 36°57' W 076°20'0 0.0
2018-Feb-22 03:54N 36°57' W 076°20'0 0.0
2018-Feb-22 03:28N 36°57' W 076°20'0 0.0
2018-Feb-22 02:58N 36°57' W 076°20'0 0.0
2018-Feb-22 02:27N 36°57' W 076°20'0 0.0
2018-Feb-22 01:56N 36°57' W 076°20'0 0.0
2018-Feb-22 01:26N 36°57' W 076°20'0 0.0
2018-Feb-22 00:56N 36°57' W 076°20'0 0.0
2018-Feb-22 00:26N 36°57' W 076°20'0 0.0
2018-Feb-21 23:56N 36°57' W 076°20'0 0.0
2018-Feb-21 23:28N 36°57' W 076°20'0 0.0
2018-Feb-21 22:58N 36°57' W 076°20'0 0.0
2018-Feb-21 22:27N 36°57' W 076°20'0 0.0
2018-Feb-21 21:56N 36°57' W 076°20'0 0.0
2018-Feb-21 21:30N 36°57' W 076°20'0 0.0
2018-Feb-21 20:50N 36°57' W 076°20'0 0.0
2018-Feb-21 20:29N 36°57' W 076°20'0 0.0
2018-Feb-21 19:58N 36°57' W 076°20'0 0.4
2018-Feb-21 19:28N 36°57' W 076°20'0 0.2
2018-Feb-21 18:56N 36°57' W 076°20'0 0.2
2018-Feb-21 18:27N 36°57' W 076°20'0 0.5
2018-Feb-21 17:56N 36°58' W 076°20'0 0.9
2018-Feb-21 17:27N 36°57' W 076°20'0 0.0
2018-Feb-21 16:29N 36°57' W 076°20'0 0.0
2018-Feb-21 15:58N 36°57' W 076°20'0 0.0
2018-Feb-21 15:29N 36°57' W 076°20'0 0.0
2018-Feb-21 14:55N 36°57' W 076°20'0 0.0
2018-Feb-21 14:29N 36°57' W 076°20'0 0.5
2018-Feb-21 13:38N 36°57' W 076°20'0 0.7
2018-Feb-21 13:13N 36°57' W 076°20'0 0.1
2018-Feb-21 13:00N 36°57' W 076°20'0 0.8
2018-Feb-21 12:28N 36°57' W 076°20'1 1.3
2018-Feb-21 11:59N 36°57' W 076°20'0 0.0
2018-Feb-21 11:28N 36°57' W 076°20'0 0.0
2018-Feb-21 10:58N 36°57' W 076°20'0 0.0
2018-Feb-21 10:27N 36°57' W 076°20'0 0.0
2018-Feb-21 09:57N 36°57' W 076°20'0 0.0
2018-Feb-21 09:27N 36°57' W 076°20'0 0.0
2018-Feb-21 08:56N 36°57' W 076°20'0 0.0
2018-Feb-21 08:26N 36°57' W 076°20'0 0.0
2018-Feb-21 08:00N 36°57' W 076°20'0 0.0
2018-Feb-21 07:30N 36°57' W 076°20'0 0.0
2018-Feb-21 06:59N 36°57' W 076°20'0 0.0
2018-Feb-21 06:29N 36°57' W 076°20'0 0.0
2018-Feb-21 05:53N 36°57' W 076°20'0 0.0
2018-Feb-21 05:27N 36°57' W 076°20'0 0.0
2018-Feb-21 04:57N 36°57' W 076°20'0 0.0
2018-Feb-21 04:26N 36°57' W 076°20'0 0.0
2018-Feb-21 03:56N 36°57' W 076°20'0 0.0
2018-Feb-21 03:26N 36°57' W 076°20'0 0.0
2018-Feb-21 02:56N 36°57' W 076°20'0 0.0
2018-Feb-21 02:23N 36°57' W 076°20'0 0.0
2018-Feb-21 01:57N 36°57' W 076°20'0 0.0
2018-Feb-21 01:27N 36°57' W 076°20'0 0.0
2018-Feb-21 00:56N 36°57' W 076°20'0 0.0
2018-Feb-21 00:24N 36°57' W 076°20'0 0.0
2018-Feb-21 00:00N 36°57' W 076°20'0 0.0
2018-Feb-20 23:29N 36°57' W 076°20'0 0.0
2018-Feb-20 22:59N 36°57' W 076°20'0 0.0
2018-Feb-20 22:27N 36°57' W 076°20'0 0.0
2018-Feb-20 21:57N 36°57' W 076°20'0 0.0
2018-Feb-20 21:28N 36°57' W 076°20'0 0.0
2018-Feb-20 20:56N 36°57' W 076°20'0 0.0
2018-Feb-20 20:26N 36°57' W 076°20'0 0.0
2018-Feb-20 20:00N 36°57' W 076°20'0 0.0
2018-Feb-20 19:28N 36°57' W 076°20'0 0.0
2018-Feb-20 18:56N 36°57' W 076°20'0 0.0
2018-Feb-20 18:27N 36°57' W 076°20'0 0.0
2018-Feb-20 17:52N 36°57' W 076°20'0 0.0
2018-Feb-20 17:30N 36°57' W 076°20'0 0.0
2018-Feb-20 17:00N 36°57' W 076°20'0 0.0
2018-Feb-20 16:29N 36°57' W 076°20'0 0.0
2018-Feb-20 15:57N 36°57' W 076°20'0 0.0
2018-Feb-20 15:27N 36°57' W 076°20'0 0.0
2018-Feb-20 14:57N 36°57' W 076°20'0 0.0
2018-Feb-20 14:26N 36°57' W 076°20'0 0.0
2018-Feb-20 14:00N 36°57' W 076°20'0 0.0
2018-Feb-20 13:30N 36°57' W 076°20'0 0.0
2018-Feb-20 12:59N 36°57' W 076°20'0 0.0
2018-Feb-20 12:29N 36°57' W 076°20'0 0.0
2018-Feb-20 11:46N 36°57' W 076°20'0 0.0
2018-Feb-20 11:30N 36°57' W 076°20'0 0.0
2018-Feb-20 10:59N 36°57' W 076°20'0 0.0
2018-Feb-20 10:29N 36°57' W 076°20'0 0.0
2018-Feb-20 09:59N 36°57' W 076°20'0 0.0
2018-Feb-20 09:16N 36°57' W 076°20'0 0.0
2018-Feb-20 08:56N 36°57' W 076°20'0 0.0
2018-Feb-20 08:29N 36°57' W 076°20'0 0.0
2018-Feb-20 07:57N 36°57' W 076°20'0 0.0
2018-Feb-20 07:26N 36°57' W 076°20'0 0.0
2018-Feb-20 07:00N 36°57' W 076°20'0 0.0
2018-Feb-20 06:29N 36°57' W 076°20'0 0.0
2018-Feb-20 05:59N 36°57' W 076°20'0 0.0
2018-Feb-20 05:29N 36°57' W 076°20'0 0.0
2018-Feb-20 04:58N 36°57' W 076°20'0 0.0
2018-Feb-20 04:28N 36°57' W 076°20'0 0.0
2018-Feb-20 03:57N 36°57' W 076°20'0 0.0
2018-Feb-20 03:27N 36°57' W 076°20'0 0.0
2018-Feb-20 02:56N 36°57' W 076°20'0 0.0
2018-Feb-20 02:26N 36°57' W 076°20'0 0.0
2018-Feb-20 02:00N 36°57' W 076°20'0 0.0
2018-Feb-20 01:29N 36°57' W 076°20'0 0.0
2018-Feb-20 00:54N 36°57' W 076°20'0 0.0
2018-Feb-20 00:29N 36°57' W 076°20'0 0.0
2018-Feb-19 23:58N 36°57' W 076°20'0 0.0
2018-Feb-19 23:21N 36°57' W 076°20'0 0.0
2018-Feb-19 22:56N 36°57' W 076°20'1 1.7
2018-Feb-19 22:20N 36°56' W 076°20'0 0.2
2018-Feb-19 21:55N 36°56' W 076°20'1 1.7
2018-Feb-19 21:14N 36°57' W 076°20'1 2.8
2018-Feb-19 20:55N 36°56' W 076°20'0 0.6
2018-Feb-19 20:28N 36°57' W 076°20'2 3.7
2018-Feb-19 19:57N 36°58' W 076°20'1 2.2
2018-Feb-19 19:23N 36°57' W 076°20'0 0.0
2018-Feb-19 18:57N 36°57' W 076°20'0 0.0
2018-Feb-19 18:29N 36°57' W 076°20'0 0.0
2018-Feb-19 17:58N 36°57' W 076°20'0 0.0
2018-Feb-19 17:28N 36°57' W 076°20'0 0.0
2018-Feb-19 16:53N 36°57' W 076°20'0 0.0
2018-Feb-19 16:28N 36°57' W 076°20'0 0.0
2018-Feb-19 15:50N 36°57' W 076°20'0 0.0
2018-Feb-19 15:30N 36°57' W 076°20'0 0.0
2018-Feb-19 14:57N 36°57' W 076°20'0 0.0
2018-Feb-19 14:17N 36°57' W 076°20'0 0.0
2018-Feb-19 13:56N 36°57' W 076°20'0 0.0
2018-Feb-19 13:30N 36°57' W 076°20'0 0.0
2018-Feb-19 12:59N 36°57' W 076°20'0 0.0
2018-Feb-19 12:18N 36°57' W 076°20'1 0.0
2018-Feb-18 18:57N 36°56' W 076°20'3 7.0
2018-Feb-18 18:28N 36°53' W 076°20'0 0.4
2018-Feb-18 17:55N 36°53' W 076°20'0 0.3
2018-Feb-18 17:30N 36°53' W 076°20'0 0.1
2018-Feb-18 16:11N 36°53' W 076°20'0 0.5
2018-Feb-18 16:00N 36°53' W 076°20'4 2.8
2018-Feb-18 14:43N 36°57' W 076°20'0 0.7
2018-Feb-18 14:27N 36°57' W 076°20'0 0.9
2018-Feb-18 13:56N 36°57' W 076°20'0 0.0
2018-Feb-18 13:30N 36°57' W 076°20'0 0.0
2018-Feb-18 13:01N 36°57' W 076°20'0 0.0
2018-Feb-18 12:25N 36°57' W 076°20'0 0.0
2018-Feb-18 11:59N 36°57' W 076°20'0 0.0
2018-Feb-18 11:24N 36°57' W 076°20'0 0.0
2018-Feb-18 11:01N 36°57' W 076°20'0 0.0
2018-Feb-18 10:31N 36°57' W 076°20'0 0.0
2018-Feb-18 09:48N 36°57' W 076°20'0 0.0
2018-Feb-18 09:23N 36°57' W 076°20'0 0.0
2018-Feb-18 08:58N 36°57' W 076°20'0 0.0
2018-Feb-18 08:28N 36°57' W 076°20'0 0.0
2018-Feb-18 07:58N 36°57' W 076°20'0 0.0
2018-Feb-18 07:28N 36°57' W 076°20'0 0.0
2018-Feb-18 06:51N 36°57' W 076°20'0 0.0
2018-Feb-18 06:26N 36°57' W 076°20'0 0.0
2018-Feb-18 06:00N 36°57' W 076°20'0 0.0
2018-Feb-18 05:30N 36°57' W 076°20'0 0.0
2018-Feb-18 04:58N 36°57' W 076°20'0 0.0
2018-Feb-18 04:28N 36°57' W 076°20'0 0.0
2018-Feb-18 03:55N 36°57' W 076°20'0 0.0
2018-Feb-18 03:29N 36°57' W 076°20'0 0.0
2018-Feb-18 02:58N 36°57' W 076°20'0 0.0
2018-Feb-18 02:28N 36°57' W 076°20'0 0.0
2018-Feb-18 01:57N 36°57' W 076°20'0 0.0
2018-Feb-18 01:30N 36°57' W 076°20'0 0.0
2018-Feb-18 01:00N 36°57' W 076°20'0 0.0
2018-Feb-18 00:29N 36°57' W 076°20'0 0.0
2018-Feb-17 23:59N 36°57' W 076°20'0 0.0
2018-Feb-17 23:28N 36°57' W 076°20'0 0.0
2018-Feb-17 22:58N 36°57' W 076°20'0 0.0
2018-Feb-17 22:27N 36°57' W 076°20'0 0.0
2018-Feb-17 21:57N 36°57' W 076°20'0 0.0
2018-Feb-17 21:26N 36°57' W 076°20'0 0.0
2018-Feb-17 20:56N 36°57' W 076°20'0 0.0
2018-Feb-17 20:30N 36°57' W 076°20'0 0.0
2018-Feb-17 19:59N 36°57' W 076°20'1 0.8
2018-Feb-17 19:18N 36°57' W 076°20'0 0.1
2018-Feb-17 18:57N 36°57' W 076°20'2 3.4
2018-Feb-17 18:26N 36°58' W 076°20'1 1.5
2018-Feb-17 18:00N 36°58' W 076°20'4 9.2
2018-Feb-17 17:31N 36°53' W 076°20'0 0.0
2018-Feb-17 17:00N 36°53' W 076°20'0 0.2
2018-Feb-17 16:29N 36°53' W 076°20'4 5.7
2018-Feb-17 15:51N 36°57' W 076°20'0 0.2
2018-Feb-17 15:24N 36°57' W 076°20'0 0.1
2018-Feb-17 14:58N 36°57' W 076°20'0 0.1
2018-Feb-17 14:28N 36°57' W 076°20'4 5.2
2018-Feb-17 13:41N 36°53' W 076°20'1 6.2
2018-Feb-17 13:28N 36°52' W 076°19'6 0.5
2018-Feb-17 01:17N 36°57' W 076°20'0 0.0
2018-Feb-17 00:57N 36°57' W 076°20'0 0.0
2018-Feb-17 00:26N 36°57' W 076°20'0 0.0
2018-Feb-16 23:56N 36°57' W 076°20'0 0.0
2018-Feb-16 23:26N 36°57' W 076°20'0 0.0
2018-Feb-16 22:46N 36°57' W 076°20'0 0.0
2018-Feb-16 22:26N 36°57' W 076°20'0 0.0
2018-Feb-16 21:56N 36°57' W 076°20'1 3.3
2018-Feb-16 21:30N 36°56' W 076°20'3 5.6
2018-Feb-16 21:00N 36°53' W 076°20'1 1.2
2018-Feb-16 20:17N 36°54' W 076°20'1 3.4
2018-Feb-16 19:54N 36°55' W 076°20'3 6.9
2018-Feb-16 19:28N 36°58' W 076°20'2 2.9
2018-Feb-16 18:57N 36°57' W 076°20'1 1.8
2018-Feb-16 18:30N 36°57' W 076°20'0 0.8
2018-Feb-16 17:59N 36°57' W 076°20'2 3.5
2018-Feb-16 17:29N 36°59' W 076°19'5 9.6
2018-Feb-16 16:57N 36°60' W 076°13'5 8.7
2018-Feb-16 16:25N 37°04' W 076°09'  

Dump ship's entire track history